sensor_id;sensor_type;location;lat;lon;timestamp;P1;durP1;ratioP1;P2;durP2;ratioP2
73779;SDS011;62093;37.614;15.072;2022-07-29T00:00:06;7.33;;;6.40;;
73779;SDS011;62093;37.614;15.072;2022-07-29T00:02:33;8.27;;;6.38;;
73779;SDS011;62093;37.614;15.072;2022-07-29T00:04:59;7.80;;;6.30;;
73779;SDS011;62093;37.614;15.072;2022-07-29T00:07:25;7.43;;;6.00;;
73779;SDS011;62093;37.614;15.072;2022-07-29T00:09:51;7.50;;;6.30;;
73779;SDS011;62093;37.614;15.072;2022-07-29T00:12:21;7.57;;;6.18;;
73779;SDS011;62093;37.614;15.072;2022-07-29T00:14:48;7.07;;;5.75;;
73779;SDS011;62093;37.614;15.072;2022-07-29T00:17:14;7.38;;;6.07;;
73779;SDS011;62093;37.614;15.072;2022-07-29T00:19:40;7.70;;;5.63;;
73779;SDS011;62093;37.614;15.072;2022-07-29T00:22:06;7.10;;;6.10;;
73779;SDS011;62093;37.614;15.072;2022-07-29T00:24:31;7.40;;;6.13;;
73779;SDS011;62093;37.614;15.072;2022-07-29T00:26:57;7.37;;;6.07;;
73779;SDS011;62093;37.614;15.072;2022-07-29T00:29:23;7.25;;;5.97;;
73779;SDS011;62093;37.614;15.072;2022-07-29T00:31:49;7.65;;;6.18;;
73779;SDS011;62093;37.614;15.072;2022-07-29T00:34:16;7.80;;;6.05;;
73779;SDS011;62093;37.614;15.072;2022-07-29T00:37:00;7.75;;;6.32;;
73779;SDS011;62093;37.614;15.072;2022-07-29T00:39:26;7.50;;;5.90;;
73779;SDS011;62093;37.614;15.072;2022-07-29T00:41:52;6.75;;;5.75;;
73779;SDS011;62093;37.614;15.072;2022-07-29T00:44:18;7.63;;;5.90;;
73779;SDS011;62093;37.614;15.072;2022-07-29T00:46:43;7.28;;;5.80;;
73779;SDS011;62093;37.614;15.072;2022-07-29T00:49:09;7.57;;;5.97;;
73779;SDS011;62093;37.614;15.072;2022-07-29T00:51:35;8.50;;;6.63;;
73779;SDS011;62093;37.614;15.072;2022-07-29T00:54:03;7.22;;;6.00;;
73779;SDS011;62093;37.614;15.072;2022-07-29T00:56:32;8.13;;;5.88;;
73779;SDS011;62093;37.614;15.072;2022-07-29T00:58:59;7.30;;;5.85;;
73779;SDS011;62093;37.614;15.072;2022-07-29T01:01:25;7.77;;;6.20;;
73779;SDS011;62093;37.614;15.072;2022-07-29T01:03:52;7.97;;;6.25;;
73779;SDS011;62093;37.614;15.072;2022-07-29T01:06:18;8.05;;;6.25;;
73779;SDS011;62093;37.614;15.072;2022-07-29T01:08:45;8.05;;;5.85;;
73779;SDS011;62093;37.614;15.072;2022-07-29T01:11:14;7.85;;;6.45;;
73779;SDS011;62093;37.614;15.072;2022-07-29T01:13:41;7.60;;;6.10;;
73779;SDS011;62093;37.614;15.072;2022-07-29T01:16:10;7.32;;;5.45;;
73779;SDS011;62093;37.614;15.072;2022-07-29T01:18:42;7.95;;;6.07;;
73779;SDS011;62093;37.614;15.072;2022-07-29T01:29:45;7.50;;;5.78;;
73779;SDS011;62093;37.614;15.072;2022-07-29T01:32:20;7.93;;;5.80;;
73779;SDS011;62093;37.614;15.072;2022-07-29T01:34:58;7.88;;;6.07;;
73779;SDS011;62093;37.614;15.072;2022-07-29T01:40:20;7.80;;;6.13;;
73779;SDS011;62093;37.614;15.072;2022-07-29T01:42:51;7.38;;;6.13;;
73779;SDS011;62093;37.614;15.072;2022-07-29T01:53:47;7.47;;;5.70;;
73779;SDS011;62093;37.614;15.072;2022-07-29T01:56:38;7.60;;;5.80;;
73779;SDS011;62093;37.614;15.072;2022-07-29T01:59:05;7.80;;;6.03;;
73779;SDS011;62093;37.614;15.072;2022-07-29T02:01:33;8.25;;;6.00;;
73779;SDS011;62093;37.614;15.072;2022-07-29T02:04:05;7.90;;;6.03;;
73779;SDS011;62093;37.614;15.072;2022-07-29T02:06:33;7.30;;;5.53;;
73779;SDS011;62093;37.614;15.072;2022-07-29T02:09:01;7.85;;;6.13;;
73779;SDS011;62093;37.614;15.072;2022-07-29T02:11:29;7.75;;;6.43;;
73779;SDS011;62093;37.614;15.072;2022-07-29T02:13:58;7.50;;;5.78;;
73779;SDS011;62093;37.614;15.072;2022-07-29T02:16:26;8.30;;;6.15;;
73779;SDS011;62093;37.614;15.072;2022-07-29T02:18:55;7.87;;;5.63;;
73779;SDS011;62093;37.614;15.072;2022-07-29T02:21:24;7.18;;;5.63;;
73779;SDS011;62093;37.614;15.072;2022-07-29T02:23:51;7.32;;;5.90;;
73779;SDS011;62093;37.614;15.072;2022-07-29T02:26:21;7.45;;;5.47;;
73779;SDS011;62093;37.614;15.072;2022-07-29T02:28:50;6.95;;;5.32;;
73779;SDS011;62093;37.614;15.072;2022-07-29T02:31:20;7.10;;;5.33;;
73779;SDS011;62093;37.614;15.072;2022-07-29T02:33:55;7.70;;;5.82;;
73779;SDS011;62093;37.614;15.072;2022-07-29T02:36:22;7.40;;;6.13;;
73779;SDS011;62093;37.614;15.072;2022-07-29T02:38:50;8.20;;;5.95;;
73779;SDS011;62093;37.614;15.072;2022-07-29T02:41:20;7.43;;;5.40;;
73779;SDS011;62093;37.614;15.072;2022-07-29T02:43:54;7.57;;;5.67;;
73779;SDS011;62093;37.614;15.072;2022-07-29T02:46:25;7.38;;;5.60;;
73779;SDS011;62093;37.614;15.072;2022-07-29T02:52:01;7.18;;;5.30;;
73779;SDS011;62093;37.614;15.072;2022-07-29T02:54:33;7.35;;;5.68;;
73779;SDS011;62093;37.614;15.072;2022-07-29T02:57:01;7.40;;;5.53;;
73779;SDS011;62093;37.614;15.072;2022-07-29T02:59:31;7.53;;;5.22;;
73779;SDS011;62093;37.614;15.072;2022-07-29T03:02:01;6.97;;;5.47;;
73779;SDS011;62093;37.614;15.072;2022-07-29T03:04:28;7.70;;;5.55;;
73779;SDS011;62093;37.614;15.072;2022-07-29T03:06:57;7.22;;;5.95;;
73779;SDS011;62093;37.614;15.072;2022-07-29T03:09:24;7.80;;;5.67;;
73779;SDS011;62093;37.614;15.072;2022-07-29T03:11:52;7.13;;;5.35;;
73779;SDS011;62093;37.614;15.072;2022-07-29T03:14:20;7.20;;;5.80;;
73779;SDS011;62093;37.614;15.072;2022-07-29T03:16:46;7.97;;;5.72;;
73779;SDS011;62093;37.614;15.072;2022-07-29T03:19:13;7.10;;;5.13;;
73779;SDS011;62093;37.614;15.072;2022-07-29T03:21:39;7.37;;;5.83;;
73779;SDS011;62093;37.614;15.072;2022-07-29T03:24:05;7.60;;;5.45;;
73779;SDS011;62093;37.614;15.072;2022-07-29T03:26:31;7.55;;;5.78;;
73779;SDS011;62093;37.614;15.072;2022-07-29T03:28:57;7.25;;;6.45;;
73779;SDS011;62093;37.614;15.072;2022-07-29T03:31:23;7.07;;;5.40;;
73779;SDS011;62093;37.614;15.072;2022-07-29T03:33:49;7.88;;;5.90;;
73779;SDS011;62093;37.614;15.072;2022-07-29T03:36:15;7.85;;;5.57;;
73779;SDS011;62093;37.614;15.072;2022-07-29T03:38:40;7.35;;;5.57;;
73779;SDS011;62093;37.614;15.072;2022-07-29T03:41:10;7.33;;;6.03;;
73779;SDS011;62093;37.614;15.072;2022-07-29T03:43:38;7.32;;;5.95;;
73779;SDS011;62093;37.614;15.072;2022-07-29T03:46:07;7.18;;;5.28;;
73779;SDS011;62093;37.614;15.072;2022-07-29T03:48:36;7.40;;;5.35;;
73779;SDS011;62093;37.614;15.072;2022-07-29T03:51:04;7.63;;;5.90;;
73779;SDS011;62093;37.614;15.072;2022-07-29T03:53:30;7.37;;;5.57;;
73779;SDS011;62093;37.614;15.072;2022-07-29T03:55:58;8.68;;;5.55;;
73779;SDS011;62093;37.614;15.072;2022-07-29T03:58:26;7.30;;;5.63;;
73779;SDS011;62093;37.614;15.072;2022-07-29T04:00:54;6.82;;;5.10;;
73779;SDS011;62093;37.614;15.072;2022-07-29T04:03:20;6.80;;;5.57;;
73779;SDS011;62093;37.614;15.072;2022-07-29T04:06:00;7.23;;;5.30;;
73779;SDS011;62093;37.614;15.072;2022-07-29T04:08:27;7.53;;;5.30;;
73779;SDS011;62093;37.614;15.072;2022-07-29T04:10:53;7.45;;;5.78;;
73779;SDS011;62093;37.614;15.072;2022-07-29T04:13:20;7.20;;;5.45;;
73779;SDS011;62093;37.614;15.072;2022-07-29T04:15:46;7.28;;;5.43;;
73779;SDS011;62093;37.614;15.072;2022-07-29T04:18:11;7.30;;;5.40;;
73779;SDS011;62093;37.614;15.072;2022-07-29T04:20:37;8.15;;;5.40;;
73779;SDS011;62093;37.614;15.072;2022-07-29T04:23:03;6.83;;;5.37;;
73779;SDS011;62093;37.614;15.072;2022-07-29T04:25:29;7.55;;;5.70;;
73779;SDS011;62093;37.614;15.072;2022-07-29T04:27:55;8.05;;;5.38;;
73779;SDS011;62093;37.614;15.072;2022-07-29T04:30:27;7.32;;;5.50;;
73779;SDS011;62093;37.614;15.072;2022-07-29T04:32:53;7.22;;;5.70;;
73779;SDS011;62093;37.614;15.072;2022-07-29T04:35:20;7.77;;;5.60;;
73779;SDS011;62093;37.614;15.072;2022-07-29T04:37:45;7.72;;;5.90;;
73779;SDS011;62093;37.614;15.072;2022-07-29T04:40:11;6.97;;;5.43;;
73779;SDS011;62093;37.614;15.072;2022-07-29T04:42:38;6.80;;;5.63;;
73779;SDS011;62093;37.614;15.072;2022-07-29T04:45:04;7.10;;;5.17;;
73779;SDS011;62093;37.614;15.072;2022-07-29T04:47:30;7.30;;;5.70;;
73779;SDS011;62093;37.614;15.072;2022-07-29T04:49:56;6.78;;;5.13;;
73779;SDS011;62093;37.614;15.072;2022-07-29T04:52:22;6.70;;;5.17;;
73779;SDS011;62093;37.614;15.072;2022-07-29T04:54:48;8.50;;;5.50;;
73779;SDS011;62093;37.614;15.072;2022-07-29T04:57:14;6.80;;;5.40;;
73779;SDS011;62093;37.614;15.072;2022-07-29T04:59:40;8.25;;;5.30;;
73779;SDS011;62093;37.614;15.072;2022-07-29T05:02:06;7.43;;;5.73;;
73779;SDS011;62093;37.614;15.072;2022-07-29T05:04:32;6.70;;;5.30;;
73779;SDS011;62093;37.614;15.072;2022-07-29T05:06:58;7.53;;;5.85;;
73779;SDS011;62093;37.614;15.072;2022-07-29T05:09:24;6.83;;;5.43;;
73779;SDS011;62093;37.614;15.072;2022-07-29T05:11:49;6.70;;;5.00;;
73779;SDS011;62093;37.614;15.072;2022-07-29T05:14:15;7.20;;;5.43;;
73779;SDS011;62093;37.614;15.072;2022-07-29T05:16:41;7.43;;;5.33;;
73779;SDS011;62093;37.614;15.072;2022-07-29T05:19:07;7.57;;;5.40;;
73779;SDS011;62093;37.614;15.072;2022-07-29T05:21:33;7.05;;;5.47;;
73779;SDS011;62093;37.614;15.072;2022-07-29T05:23:59;7.40;;;5.50;;
73779;SDS011;62093;37.614;15.072;2022-07-29T05:26:25;7.55;;;5.30;;
73779;SDS011;62093;37.614;15.072;2022-07-29T05:28:50;6.68;;;5.10;;
73779;SDS011;62093;37.614;15.072;2022-07-29T05:31:16;7.40;;;5.67;;
73779;SDS011;62093;37.614;15.072;2022-07-29T05:33:42;6.95;;;6.00;;
73779;SDS011;62093;37.614;15.072;2022-07-29T05:36:08;7.13;;;5.43;;
73779;SDS011;62093;37.614;15.072;2022-07-29T05:38:34;7.78;;;5.72;;
73779;SDS011;62093;37.614;15.072;2022-07-29T05:41:00;7.88;;;5.70;;
73779;SDS011;62093;37.614;15.072;2022-07-29T05:43:29;8.07;;;5.90;;
73779;SDS011;62093;37.614;15.072;2022-07-29T05:45:55;7.53;;;5.30;;
73779;SDS011;62093;37.614;15.072;2022-07-29T05:48:22;7.18;;;5.60;;
73779;SDS011;62093;37.614;15.072;2022-07-29T05:50:48;7.32;;;5.50;;
73779;SDS011;62093;37.614;15.072;2022-07-29T05:53:14;7.47;;;6.15;;
73779;SDS011;62093;37.614;15.072;2022-07-29T05:55:40;7.37;;;5.50;;
73779;SDS011;62093;37.614;15.072;2022-07-29T05:58:05;6.75;;;5.30;;
73779;SDS011;62093;37.614;15.072;2022-07-29T06:00:31;7.20;;;5.67;;
73779;SDS011;62093;37.614;15.072;2022-07-29T06:02:57;7.53;;;5.73;;
73779;SDS011;62093;37.614;15.072;2022-07-29T06:05:23;7.53;;;6.10;;
73779;SDS011;62093;37.614;15.072;2022-07-29T06:07:49;7.37;;;5.87;;
73779;SDS011;62093;37.614;15.072;2022-07-29T06:10:14;7.07;;;5.63;;
73779;SDS011;62093;37.614;15.072;2022-07-29T06:12:40;6.82;;;5.18;;
73779;SDS011;62093;37.614;15.072;2022-07-29T06:15:06;6.90;;;5.77;;
73779;SDS011;62093;37.614;15.072;2022-07-29T06:17:32;7.88;;;5.82;;
73779;SDS011;62093;37.614;15.072;2022-07-29T06:19:58;7.20;;;5.10;;
73779;SDS011;62093;37.614;15.072;2022-07-29T06:22:24;6.70;;;5.60;;
73779;SDS011;62093;37.614;15.072;2022-07-29T06:24:50;7.18;;;5.90;;
73779;SDS011;62093;37.614;15.072;2022-07-29T06:27:16;7.60;;;5.90;;
73779;SDS011;62093;37.614;15.072;2022-07-29T06:29:41;7.13;;;5.72;;
73779;SDS011;62093;37.614;15.072;2022-07-29T06:32:07;7.13;;;5.72;;
73779;SDS011;62093;37.614;15.072;2022-07-29T06:34:35;7.20;;;5.30;;
73779;SDS011;62093;37.614;15.072;2022-07-29T06:37:05;7.32;;;5.75;;
73779;SDS011;62093;37.614;15.072;2022-07-29T06:39:37;7.70;;;6.22;;
73779;SDS011;62093;37.614;15.072;2022-07-29T06:42:06;6.65;;;5.25;;
73779;SDS011;62093;37.614;15.072;2022-07-29T06:44:32;7.30;;;5.65;;
73779;SDS011;62093;37.614;15.072;2022-07-29T06:47:01;8.63;;;6.27;;
73779;SDS011;62093;37.614;15.072;2022-07-29T06:49:27;7.65;;;5.70;;
73779;SDS011;62093;37.614;15.072;2022-07-29T06:51:54;7.68;;;6.03;;
73779;SDS011;62093;37.614;15.072;2022-07-29T06:54:20;6.97;;;5.63;;
73779;SDS011;62093;37.614;15.072;2022-07-29T06:56:46;7.05;;;5.40;;
73779;SDS011;62093;37.614;15.072;2022-07-29T06:59:12;7.33;;;5.50;;
73779;SDS011;62093;37.614;15.072;2022-07-29T07:01:39;7.07;;;5.32;;
73779;SDS011;62093;37.614;15.072;2022-07-29T07:04:07;7.25;;;5.50;;
73779;SDS011;62093;37.614;15.072;2022-07-29T07:06:36;7.83;;;5.50;;
73779;SDS011;62093;37.614;15.072;2022-07-29T07:09:03;8.10;;;5.40;;
73779;SDS011;62093;37.614;15.072;2022-07-29T07:11:29;7.35;;;5.53;;
73779;SDS011;62093;37.614;15.072;2022-07-29T07:13:54;6.75;;;5.30;;
73779;SDS011;62093;37.614;15.072;2022-07-29T07:16:20;6.67;;;5.07;;
73779;SDS011;62093;37.614;15.072;2022-07-29T07:18:46;6.90;;;5.68;;
73779;SDS011;62093;37.614;15.072;2022-07-29T07:21:12;6.90;;;5.50;;
73779;SDS011;62093;37.614;15.072;2022-07-29T07:23:38;6.97;;;5.13;;
73779;SDS011;62093;37.614;15.072;2022-07-29T07:26:04;7.00;;;5.40;;
73779;SDS011;62093;37.614;15.072;2022-07-29T07:28:31;6.73;;;5.30;;
73779;SDS011;62093;37.614;15.072;2022-07-29T07:30:57;6.90;;;5.53;;
73779;SDS011;62093;37.614;15.072;2022-07-29T07:33:22;7.35;;;5.50;;
73779;SDS011;62093;37.614;15.072;2022-07-29T07:35:48;6.82;;;5.50;;
73779;SDS011;62093;37.614;15.072;2022-07-29T07:38:14;6.67;;;5.33;;
73779;SDS011;62093;37.614;15.072;2022-07-29T07:40:40;7.00;;;5.50;;
73779;SDS011;62093;37.614;15.072;2022-07-29T07:43:06;6.72;;;5.43;;
73779;SDS011;62093;37.614;15.072;2022-07-29T07:45:32;7.00;;;5.53;;
73779;SDS011;62093;37.614;15.072;2022-07-29T07:47:58;7.05;;;5.45;;
73779;SDS011;62093;37.614;15.072;2022-07-29T07:50:24;7.30;;;5.88;;
73779;SDS011;62093;37.614;15.072;2022-07-29T07:52:52;6.57;;;5.65;;
73779;SDS011;62093;37.614;15.072;2022-07-29T07:55:20;6.93;;;5.53;;
73779;SDS011;62093;37.614;15.072;2022-07-29T07:57:46;7.60;;;5.93;;
73779;SDS011;62093;37.614;15.072;2022-07-29T08:00:12;6.70;;;5.15;;
73779;SDS011;62093;37.614;15.072;2022-07-29T08:02:39;6.70;;;5.38;;
73779;SDS011;62093;37.614;15.072;2022-07-29T08:05:06;7.93;;;5.73;;
73779;SDS011;62093;37.614;15.072;2022-07-29T08:07:33;6.75;;;5.45;;
73779;SDS011;62093;37.614;15.072;2022-07-29T08:09:59;6.60;;;5.40;;
73779;SDS011;62093;37.614;15.072;2022-07-29T08:12:25;7.07;;;5.45;;
73779;SDS011;62093;37.614;15.072;2022-07-29T08:14:50;7.70;;;5.50;;
73779;SDS011;62093;37.614;15.072;2022-07-29T08:17:16;6.97;;;5.03;;
73779;SDS011;62093;37.614;15.072;2022-07-29T08:19:42;6.63;;;5.43;;
73779;SDS011;62093;37.614;15.072;2022-07-29T08:22:08;7.13;;;5.73;;
73779;SDS011;62093;37.614;15.072;2022-07-29T08:24:34;7.22;;;5.72;;
73779;SDS011;62093;37.614;15.072;2022-07-29T08:27:09;7.22;;;6.03;;
73779;SDS011;62093;37.614;15.072;2022-07-29T08:29:36;7.28;;;5.70;;
73779;SDS011;62093;37.614;15.072;2022-07-29T08:32:02;6.80;;;5.00;;
73779;SDS011;62093;37.614;15.072;2022-07-29T08:34:28;6.97;;;5.32;;
73779;SDS011;62093;37.614;15.072;2022-07-29T08:36:55;6.80;;;5.47;;
73779;SDS011;62093;37.614;15.072;2022-07-29T08:39:21;7.07;;;5.70;;
73779;SDS011;62093;37.614;15.072;2022-07-29T08:41:48;6.80;;;5.35;;
73779;SDS011;62093;37.614;15.072;2022-07-29T08:44:16;7.30;;;5.50;;
73779;SDS011;62093;37.614;15.072;2022-07-29T08:46:43;6.53;;;5.35;;
73779;SDS011;62093;37.614;15.072;2022-07-29T08:49:08;6.70;;;5.47;;
73779;SDS011;62093;37.614;15.072;2022-07-29T08:51:35;6.80;;;5.57;;
73779;SDS011;62093;37.614;15.072;2022-07-29T08:54:02;7.38;;;6.10;;
73779;SDS011;62093;37.614;15.072;2022-07-29T08:56:28;7.20;;;5.87;;
73779;SDS011;62093;37.614;15.072;2022-07-29T08:58:54;7.35;;;5.80;;
73779;SDS011;62093;37.614;15.072;2022-07-29T09:01:24;7.15;;;4.93;;
73779;SDS011;62093;37.614;15.072;2022-07-29T09:03:54;6.53;;;5.47;;
73779;SDS011;62093;37.614;15.072;2022-07-29T09:06:21;7.13;;;6.00;;
73779;SDS011;62093;37.614;15.072;2022-07-29T09:08:51;7.63;;;5.37;;
73779;SDS011;62093;37.614;15.072;2022-07-29T09:11:17;6.68;;;5.28;;
73779;SDS011;62093;37.614;15.072;2022-07-29T09:13:43;7.20;;;5.43;;
73779;SDS011;62093;37.614;15.072;2022-07-29T09:16:09;6.27;;;5.37;;
73779;SDS011;62093;37.614;15.072;2022-07-29T09:18:39;7.50;;;5.43;;
73779;SDS011;62093;37.614;15.072;2022-07-29T09:21:07;6.40;;;5.20;;
73779;SDS011;62093;37.614;15.072;2022-07-29T09:24:00;6.35;;;5.03;;
73779;SDS011;62093;37.614;15.072;2022-07-29T09:26:40;7.00;;;5.50;;
73779;SDS011;62093;37.614;15.072;2022-07-29T09:29:19;6.47;;;5.65;;
73779;SDS011;62093;37.614;15.072;2022-07-29T09:31:48;6.57;;;5.47;;
73779;SDS011;62093;37.614;15.072;2022-07-29T09:34:25;6.93;;;5.45;;
73779;SDS011;62093;37.614;15.072;2022-07-29T09:36:53;7.22;;;5.57;;
73779;SDS011;62093;37.614;15.072;2022-07-29T09:41:58;6.90;;;5.65;;
73779;SDS011;62093;37.614;15.072;2022-07-29T09:44:25;6.75;;;5.32;;
73779;SDS011;62093;37.614;15.072;2022-07-29T09:49:21;7.20;;;5.50;;
73779;SDS011;62093;37.614;15.072;2022-07-29T09:51:47;6.90;;;5.73;;
73779;SDS011;62093;37.614;15.072;2022-07-29T09:54:24;6.72;;;5.20;;
73779;SDS011;62093;37.614;15.072;2022-07-29T09:56:52;6.85;;;5.32;;
73779;SDS011;62093;37.614;15.072;2022-07-29T09:59:18;6.70;;;5.20;;
73779;SDS011;62093;37.614;15.072;2022-07-29T10:01:45;6.90;;;5.87;;
73779;SDS011;62093;37.614;15.072;2022-07-29T10:04:11;6.50;;;5.15;;
73779;SDS011;62093;37.614;15.072;2022-07-29T10:06:55;7.15;;;5.53;;
73779;SDS011;62093;37.614;15.072;2022-07-29T10:09:25;6.22;;;4.95;;
73779;SDS011;62093;37.614;15.072;2022-07-29T10:14:34;6.95;;;5.22;;
73779;SDS011;62093;37.614;15.072;2022-07-29T10:17:01;6.15;;;5.07;;
73779;SDS011;62093;37.614;15.072;2022-07-29T10:19:31;6.70;;;5.10;;
73779;SDS011;62093;37.614;15.072;2022-07-29T10:21:59;6.95;;;5.47;;
73779;SDS011;62093;37.614;15.072;2022-07-29T10:24:28;6.93;;;5.37;;
73779;SDS011;62093;37.614;15.072;2022-07-29T10:26:55;6.57;;;5.30;;
73779;SDS011;62093;37.614;15.072;2022-07-29T10:29:22;7.22;;;5.57;;
73779;SDS011;62093;37.614;15.072;2022-07-29T10:32:06;7.25;;;5.53;;
73779;SDS011;62093;37.614;15.072;2022-07-29T10:34:55;6.57;;;5.53;;
73779;SDS011;62093;37.614;15.072;2022-07-29T10:43:41;6.60;;;5.70;;
73779;SDS011;62093;37.614;15.072;2022-07-29T10:46:09;6.82;;;5.25;;
73779;SDS011;62093;37.614;15.072;2022-07-29T10:54:43;6.88;;;5.30;;
73779;SDS011;62093;37.614;15.072;2022-07-29T10:57:12;7.43;;;5.47;;
73779;SDS011;62093;37.614;15.072;2022-07-29T10:59:45;6.93;;;5.55;;
73779;SDS011;62093;37.614;15.072;2022-07-29T11:10:38;6.68;;;5.47;;
73779;SDS011;62093;37.614;15.072;2022-07-29T11:13:04;6.53;;;5.25;;
73779;SDS011;62093;37.614;15.072;2022-07-29T11:15:40;6.68;;;5.32;;
73779;SDS011;62093;37.614;15.072;2022-07-29T11:18:22;6.53;;;5.03;;
73779;SDS011;62093;37.614;15.072;2022-07-29T11:20:49;6.88;;;5.38;;
73779;SDS011;62093;37.614;15.072;2022-07-29T11:23:20;7.15;;;5.50;;
73779;SDS011;62093;37.614;15.072;2022-07-29T11:26:12;6.40;;;5.15;;
73779;SDS011;62093;37.614;15.072;2022-07-29T11:28:35;6.43;;;4.97;;
73779;SDS011;62093;37.614;15.072;2022-07-29T11:31:16;6.20;;;4.73;;
73779;SDS011;62093;37.614;15.072;2022-07-29T11:33:45;6.38;;;4.70;;
73779;SDS011;62093;37.614;15.072;2022-07-29T11:36:11;8.25;;;5.53;;
73779;SDS011;62093;37.614;15.072;2022-07-29T11:38:39;6.95;;;5.38;;
73779;SDS011;62093;37.614;15.072;2022-07-29T11:43:46;6.97;;;5.10;;
73779;SDS011;62093;37.614;15.072;2022-07-29T11:46:13;6.78;;;5.30;;
73779;SDS011;62093;37.614;15.072;2022-07-29T11:48:42;7.30;;;6.07;;
73779;SDS011;62093;37.614;15.072;2022-07-29T11:51:09;7.22;;;5.65;;
73779;SDS011;62093;37.614;15.072;2022-07-29T11:53:37;6.40;;;4.88;;
73779;SDS011;62093;37.614;15.072;2022-07-29T11:56:04;7.00;;;5.37;;
73779;SDS011;62093;37.614;15.072;2022-07-29T11:58:34;6.30;;;5.30;;
73779;SDS011;62093;37.614;15.072;2022-07-29T12:01:00;7.63;;;5.45;;
73779;SDS011;62093;37.614;15.072;2022-07-29T12:03:27;6.90;;;5.40;;
73779;SDS011;62093;37.614;15.072;2022-07-29T12:05:54;6.97;;;5.40;;
73779;SDS011;62093;37.614;15.072;2022-07-29T12:08:22;6.60;;;5.23;;
73779;SDS011;62093;37.614;15.072;2022-07-29T12:10:51;6.93;;;5.30;;
73779;SDS011;62093;37.614;15.072;2022-07-29T12:13:18;6.13;;;4.90;;
73779;SDS011;62093;37.614;15.072;2022-07-29T12:15:55;6.75;;;5.07;;
73779;SDS011;62093;37.614;15.072;2022-07-29T12:18:22;6.67;;;5.10;;
73779;SDS011;62093;37.614;15.072;2022-07-29T12:20:49;6.30;;;4.88;;
73779;SDS011;62093;37.614;15.072;2022-07-29T12:23:25;6.38;;;5.28;;
73779;SDS011;62093;37.614;15.072;2022-07-29T12:25:50;6.60;;;5.00;;
73779;SDS011;62093;37.614;15.072;2022-07-29T12:28:17;6.57;;;4.70;;
73779;SDS011;62093;37.614;15.072;2022-07-29T12:30:48;6.97;;;5.40;;
73779;SDS011;62093;37.614;15.072;2022-07-29T12:33:16;6.50;;;5.03;;
73779;SDS011;62093;37.614;15.072;2022-07-29T12:35:47;6.40;;;5.20;;
73779;SDS011;62093;37.614;15.072;2022-07-29T12:38:16;6.32;;;4.75;;
73779;SDS011;62093;37.614;15.072;2022-07-29T12:40:43;6.27;;;4.63;;
73779;SDS011;62093;37.614;15.072;2022-07-29T12:43:11;6.90;;;5.10;;
73779;SDS011;62093;37.614;15.072;2022-07-29T12:45:42;6.50;;;5.20;;
73779;SDS011;62093;37.614;15.072;2022-07-29T12:48:10;6.07;;;4.93;;
73779;SDS011;62093;37.614;15.072;2022-07-29T12:50:36;6.40;;;5.28;;
73779;SDS011;62093;37.614;15.072;2022-07-29T12:53:17;6.30;;;4.60;;
73779;SDS011;62093;37.614;15.072;2022-07-29T12:55:44;5.93;;;4.53;;
73779;SDS011;62093;37.614;15.072;2022-07-29T12:58:25;6.63;;;4.97;;
73779;SDS011;62093;37.614;15.072;2022-07-29T13:01:14;6.13;;;5.18;;
73779;SDS011;62093;37.614;15.072;2022-07-29T13:11:44;6.32;;;4.93;;
73779;SDS011;62093;37.614;15.072;2022-07-29T13:22:13;6.78;;;5.28;;
73779;SDS011;62093;37.614;15.072;2022-07-29T13:27:21;6.45;;;4.78;;
73779;SDS011;62093;37.614;15.072;2022-07-29T13:29:51;6.30;;;4.93;;
73779;SDS011;62093;37.614;15.072;2022-07-29T13:32:18;6.63;;;5.30;;
73779;SDS011;62093;37.614;15.072;2022-07-29T13:34:45;6.50;;;5.28;;
73779;SDS011;62093;37.614;15.072;2022-07-29T13:37:10;6.13;;;4.70;;
73779;SDS011;62093;37.614;15.072;2022-07-29T13:39:37;5.93;;;4.63;;
73779;SDS011;62093;37.614;15.072;2022-07-29T13:42:03;6.63;;;4.70;;
73779;SDS011;62093;37.614;15.072;2022-07-29T13:44:30;6.32;;;4.80;;
73779;SDS011;62093;37.614;15.072;2022-07-29T13:46:55;5.95;;;4.53;;
73779;SDS011;62093;37.614;15.072;2022-07-29T13:49:21;5.80;;;4.30;;
73779;SDS011;62093;37.614;15.072;2022-07-29T13:51:48;6.82;;;5.18;;
73779;SDS011;62093;37.614;15.072;2022-07-29T13:54:14;6.30;;;5.18;;
73779;SDS011;62093;37.614;15.072;2022-07-29T13:56:40;6.90;;;5.30;;
73779;SDS011;62093;37.614;15.072;2022-07-29T13:59:06;6.37;;;5.17;;
73779;SDS011;62093;37.614;15.072;2022-07-29T14:01:33;6.28;;;4.97;;
73779;SDS011;62093;37.614;15.072;2022-07-29T14:04:00;6.78;;;4.90;;
73779;SDS011;62093;37.614;15.072;2022-07-29T14:06:26;6.75;;;5.07;;
73779;SDS011;62093;37.614;15.072;2022-07-29T14:08:52;7.07;;;5.07;;
73779;SDS011;62093;37.614;15.072;2022-07-29T14:11:18;6.18;;;5.05;;
73779;SDS011;62093;37.614;15.072;2022-07-29T14:13:43;6.35;;;5.03;;
73779;SDS011;62093;37.614;15.072;2022-07-29T14:16:10;6.27;;;4.83;;
73779;SDS011;62093;37.614;15.072;2022-07-29T14:18:35;6.13;;;4.97;;
73779;SDS011;62093;37.614;15.072;2022-07-29T14:21:01;6.40;;;4.53;;
73779;SDS011;62093;37.614;15.072;2022-07-29T14:23:27;6.33;;;4.50;;
73779;SDS011;62093;37.614;15.072;2022-07-29T14:25:54;5.93;;;4.57;;
73779;SDS011;62093;37.614;15.072;2022-07-29T14:28:20;6.32;;;4.93;;
73779;SDS011;62093;37.614;15.072;2022-07-29T14:30:45;6.70;;;4.90;;
73779;SDS011;62093;37.614;15.072;2022-07-29T14:33:11;6.35;;;4.50;;
73779;SDS011;62093;37.614;15.072;2022-07-29T14:35:37;6.53;;;5.20;;
73779;SDS011;62093;37.614;15.072;2022-07-29T14:38:03;6.30;;;5.05;;
73779;SDS011;62093;37.614;15.072;2022-07-29T14:40:29;6.40;;;5.10;;
73779;SDS011;62093;37.614;15.072;2022-07-29T14:42:55;7.07;;;4.72;;
73779;SDS011;62093;37.614;15.072;2022-07-29T14:45:21;6.83;;;4.97;;
73779;SDS011;62093;37.614;15.072;2022-07-29T14:47:47;6.33;;;4.73;;
73779;SDS011;62093;37.614;15.072;2022-07-29T14:50:15;6.28;;;4.65;;
73779;SDS011;62093;37.614;15.072;2022-07-29T14:52:42;6.32;;;4.90;;
73779;SDS011;62093;37.614;15.072;2022-07-29T14:55:08;6.25;;;5.25;;
73779;SDS011;62093;37.614;15.072;2022-07-29T14:57:34;6.10;;;4.90;;
73779;SDS011;62093;37.614;15.072;2022-07-29T15:00:00;6.38;;;4.85;;
73779;SDS011;62093;37.614;15.072;2022-07-29T15:02:28;5.97;;;4.68;;
73779;SDS011;62093;37.614;15.072;2022-07-29T15:04:54;6.28;;;4.82;;
73779;SDS011;62093;37.614;15.072;2022-07-29T15:07:20;6.47;;;4.78;;
73779;SDS011;62093;37.614;15.072;2022-07-29T15:09:47;6.00;;;4.53;;
73779;SDS011;62093;37.614;15.072;2022-07-29T15:12:13;6.20;;;4.88;;
73779;SDS011;62093;37.614;15.072;2022-07-29T15:14:39;6.47;;;5.10;;
73779;SDS011;62093;37.614;15.072;2022-07-29T15:17:05;6.32;;;4.72;;
73779;SDS011;62093;37.614;15.072;2022-07-29T15:19:30;6.83;;;4.77;;
73779;SDS011;62093;37.614;15.072;2022-07-29T15:21:56;5.85;;;4.53;;
73779;SDS011;62093;37.614;15.072;2022-07-29T15:24:22;7.03;;;4.95;;
73779;SDS011;62093;37.614;15.072;2022-07-29T15:26:48;6.03;;;4.60;;
73779;SDS011;62093;37.614;15.072;2022-07-29T15:29:14;5.90;;;4.45;;
73779;SDS011;62093;37.614;15.072;2022-07-29T15:31:40;6.72;;;4.70;;
73779;SDS011;62093;37.614;15.072;2022-07-29T15:34:06;6.70;;;4.78;;
73779;SDS011;62093;37.614;15.072;2022-07-29T15:36:32;6.13;;;5.17;;
73779;SDS011;62093;37.614;15.072;2022-07-29T15:38:58;5.85;;;4.40;;
73779;SDS011;62093;37.614;15.072;2022-07-29T15:41:23;6.70;;;5.20;;
73779;SDS011;62093;37.614;15.072;2022-07-29T15:43:49;6.25;;;4.78;;
73779;SDS011;62093;37.614;15.072;2022-07-29T15:46:16;6.40;;;4.65;;
73779;SDS011;62093;37.614;15.072;2022-07-29T15:49:02;5.93;;;4.63;;